Time;durP1;ratioP1;P1;durP2;ratioP2;P2;SDS_P1;SDS_P2;PMS_P1;PMS_P2;Temp;Humidity;BMP_temperature;BMP_pressure;BME280_temperature;BME280_humidity;BME280_pressure;Samples;Min_cycle;Max_cycle;Signal;HPM_P1;HPM_P2
2021/04/23 00:01:11;;;;;;;9.98;3.25;;;7.40;94.80;;;;;;5019166;28;20043;-83
2021/04/23 00:03:37;;;;;;;10.98;3.40;;;7.50;95.20;;;;;;5037182;28;20067;-83
2021/04/23 00:06:23;;;;;;;8.95;2.90;;;7.70;94.40;;;;;;5036866;28;20056;-83
2021/04/23 00:08:56;;;;;;;10.18;3.60;;;7.60;95.20;;;;;;5037165;28;20380;-83
2021/04/23 00:11:30;;;;;;;9.88;3.15;;;7.30;94.60;;;;;;5019126;28;20075;-83
2021/04/23 00:13:56;;;;;;;;;;;7.50;94.50;;;;;;5019121;28;20104;-83
2021/04/23 00:16:22;;;;;;;8.38;3.05;;;7.40;94.00;;;;;;5036512;28;19995;-84
2021/04/23 00:18:47;;;;;;;9.30;3.30;;;7.20;95.90;;;;;;5018836;28;20524;-84
2021/04/23 00:21:18;;;;;;;8.32;3.17;;;6.90;94.70;;;;;;5018827;28;20048;-84
2021/04/23 00:23:44;;;;;;;9.85;3.03;;;7.10;96.50;;;;;;5018818;28;20021;-83
2021/04/23 00:26:10;;;;;;;8.32;3.30;;;7.30;95.80;;;;;;5018758;28;20080;-83
2021/04/23 00:28:37;;;;;;;10.82;3.33;;;7.20;94.30;;;;;;5036441;28;20412;-83
2021/04/23 00:31:03;;;;;;;7.78;2.90;;;7.40;95.90;;;;;;5036431;28;20022;-83
2021/04/23 00:33:30;;;;;;;10.32;3.42;;;7.30;95.30;;;;;;5036364;28;20488;-83
2021/04/23 00:35:56;;;;;;;15.13;3.58;;;7.10;95.30;;;;;;5018582;28;20053;-84
2021/04/23 00:38:25;;;;;;;8.73;3.05;;;7.10;95.40;;;;;;5036414;28;20056;-84
2021/04/23 00:41:15;;;;;;;11.13;3.40;;;7.00;95.50;;;;;;5018388;28;20037;-84
2021/04/23 00:43:45;;;;;;;10.75;2.95;;;6.90;96.00;;;;;;5035965;28;20473;-83
2021/04/23 00:46:13;;;;;;;9.32;2.92;;;6.80;95.00;;;;;;5018437;28;20037;-83
2021/04/23 00:48:46;;;;;;;8.73;2.65;;;6.90;96.00;;;;;;5036081;28;20060;-84
2021/04/23 00:51:18;;;;;;;7.20;2.83;;;6.90;95.40;;;;;;5018398;28;20120;-84
2021/04/23 00:53:50;;;;;;;8.60;2.85;;;7.00;95.50;;;;;;5036280;28;20446;-83
2021/04/23 00:56:21;;;;;;;8.18;2.92;;;6.90;96.20;;;;;;5018219;28;20555;-83
2021/04/23 00:58:48;;;;;;;9.32;3.45;;;7.20;96.00;;;;;;5036439;28;20029;-84
2021/04/23 01:01:30;;;;;;;12.50;2.95;;;7.30;96.00;;;;;;5035890;28;20022;-84
2021/04/23 01:03:57;;;;;;;8.07;3.00;;;7.40;95.00;;;;;;5018136;28;20108;-83
2021/04/23 01:06:26;;;;;;;10.50;3.05;;;7.00;95.70;;;;;;5035224;28;20358;-84
2021/04/23 01:08:53;;;;;;;6.65;2.80;;;6.60;94.40;;;;;;5035995;28;20033;-84
2021/04/23 01:11:21;;;;;;;9.45;3.17;;;6.20;95.00;;;;;;5017893;28;20029;-84
2021/04/23 01:13:47;;;;;;;7.00;3.25;;;6.10;96.50;;;;;;5017873;28;20068;-83
2021/04/23 01:16:17;;;;;;;8.30;2.72;;;6.40;97.80;;;;;;5035597;28;20087;-84
2021/04/23 01:18:43;;;;;;;7.90;2.97;;;6.30;97.40;;;;;;5035451;28;20017;-84
2021/04/23 01:21:10;;;;;;;8.80;3.00;;;6.40;96.60;;;;;;5035463;28;20029;-84
2021/04/23 01:23:37;;;;;;;9.90;3.28;;;6.70;98.40;;;;;;5017681;28;20022;-84
2021/04/23 01:26:05;;;;;;;6.03;2.63;;;7.30;97.10;;;;;;5035383;28;20032;-83
2021/04/23 01:28:31;;;;;;;9.73;2.85;;;7.50;96.30;;;;;;5017601;28;20068;-84
2021/04/23 01:30:59;;;;;;;7.22;2.90;;;7.30;95.10;;;;;;5017498;28;20033;-83
2021/04/23 01:33:26;;;;;;;7.05;3.10;;;6.90;96.10;;;;;;5035530;28;20057;-83
2021/04/23 01:35:52;;;;;;;7.68;2.60;;;6.90;95.40;;;;;;5017473;28;20477;-83
2021/04/23 01:38:18;;;;;;;8.90;2.80;;;6.80;96.00;;;;;;5017262;28;20021;-83
2021/04/23 01:40:45;;;;;;;11.63;2.72;;;7.10;97.00;;;;;;5017371;28;20021;-84
2021/04/23 01:43:13;;;;;;;5.47;2.60;;;6.90;96.00;;;;;;5017259;28;20117;-83
2021/04/23 01:45:40;;;;;;;7.38;2.60;;;6.80;97.30;;;;;;5017108;28;20046;-83
2021/04/23 01:48:06;;;;;;;8.38;2.85;;;6.90;96.20;;;;;;5017222;28;20021;-83
2021/04/23 01:50:32;;;;;;;8.10;2.88;;;7.20;97.00;;;;;;5034859;28;20489;-83
2021/04/23 01:52:58;;;;;;;6.72;2.58;;;7.20;96.60;;;;;;5017056;28;20053;-83
2021/04/23 01:55:24;;;;;;;9.23;2.95;;;7.30;96.40;;;;;;5017043;28;20115;-83
2021/04/23 01:57:50;;;;;;;6.82;2.70;;;7.10;96.30;;;;;;5034678;28;20048;-83
2021/04/23 02:00:22;;;;;;;5.80;2.70;;;7.30;97.00;;;;;;5016871;28;20031;-83
2021/04/23 02:02:54;;;;;;;43.22;13.63;;;7.40;95.80;;;;;;5034663;28;20022;-83
2021/04/23 02:05:21;;;;;;;8.55;3.10;;;7.40;95.40;;;;;;5034965;28;20469;-83
2021/04/23 02:07:47;;;;;;;9.07;2.92;;;7.20;95.70;;;;;;5016899;28;20029;-83
2021/04/23 02:10:17;;;;;;;9.63;3.30;;;7.00;95.20;;;;;;5034546;28;20026;-83
2021/04/23 02:12:45;;;;;;;7.57;2.80;;;6.70;95.40;;;;;;5034521;28;20100;-83
2021/04/23 02:15:14;;;;;;;14.05;3.67;;;6.60;99.90;;;;;;5034451;28;20384;-83
2021/04/23 02:17:41;;;;;;;10.27;2.95;;;6.70;99.90;;;;;;5016214;28;20447;-83
2021/04/23 02:20:12;;;;;;;12.45;3.53;;;6.80;99.90;;;;;;5016384;28;20481;-83
2021/04/23 02:22:40;;;;;;;8.48;2.92;;;6.80;99.90;;;;;;5016658;28;20030;-83
2021/04/23 02:25:08;;;;;;;7.15;3.20;;;6.70;99.90;;;;;;5034493;28;20071;-83
2021/04/23 02:27:33;;;;;;;8.63;2.88;;;6.50;99.90;;;;;;5034489;28;20017;-83
2021/04/23 02:29:59;;;;;;;10.02;3.20;;;6.60;99.90;;;;;;5034706;28;20025;-84
2021/04/23 02:32:25;;;;;;;12.93;3.17;;;6.80;99.90;;;;;;5016458;28;20021;-83
2021/04/23 02:34:51;;;;;;;9.15;3.20;;;6.90;96.50;;;;;;5034094;28;20056;-83
2021/04/23 02:37:17;;;;;;;9.05;3.03;;;6.60;96.30;;;;;;5016396;28;20025;-83
2021/04/23 02:39:43;;;;;;;9.45;2.97;;;6.30;96.80;;;;;;5034392;28;20048;-83
2021/04/23 02:42:08;;;;;;;6.85;2.70;;;6.50;97.20;;;;;;5016231;28;20154;-83
2021/04/23 02:44:34;;;;;;;7.43;3.00;;;6.50;95.60;;;;;;5033750;28;20116;-83
2021/04/23 02:47:00;;;;;;;9.98;3.33;;;6.30;96.20;;;;;;5033868;28;20496;-84
2021/04/23 02:49:26;;;;;;;7.45;2.92;;;6.20;97.10;;;;;;5033880;28;20029;-83
2021/04/23 02:51:52;;;;;;;7.82;3.15;;;6.60;98.50;;;;;;5016095;28;20036;-83
2021/04/23 02:54:20;;;;;;;9.30;3.00;;;6.60;96.90;;;;;;5016045;28;20037;-83
2021/04/23 02:56:47;;;;;;;11.18;3.20;;;6.60;95.80;;;;;;5016085;28;20113;-83
2021/04/23 02:59:13;;;;;;;8.57;3.20;;;6.40;96.50;;;;;;5016726;28;20469;-84
2021/04/23 03:01:49;;;;;;;13.10;3.45;;;6.30;97.10;;;;;;5015972;28;20079;-84
2021/04/23 03:04:15;;;;;;;10.10;3.35;;;6.20;96.80;;;;;;5033956;28;20044;-83
2021/04/23 03:06:42;;;;;;;7.60;3.15;;;6.40;98.00;;;;;;5015887;28;20112;-84
2021/04/23 03:09:08;;;;;;;9.55;3.25;;;6.50;97.60;;;;;;5015833;28;20128;-84
2021/04/23 03:11:37;;;;;;;9.07;3.00;;;6.60;95.60;;;;;;5015869;28;20029;-84
2021/04/23 03:14:04;;;;;;;7.50;2.85;;;6.50;97.50;;;;;;5015794;28;20021;-83
2021/04/23 03:16:32;;;;;;;11.70;3.53;;;6.50;97.50;;;;;;4999285;28;20037;-83
2021/04/23 03:18:57;;;;;;;13.60;3.03;;;6.60;97.50;;;;;;5033345;28;20033;-83
2021/04/23 03:21:27;;;;;;;11.55;3.30;;;6.70;96.40;;;;;;5015688;28;20047;-84
2021/04/23 03:23:54;;;;;;;9.75;2.97;;;6.70;96.30;;;;;;5015658;28;20384;-83
2021/04/23 03:26:21;;;;;;;12.85;3.40;;;6.70;97.40;;;;;;5033588;28;20022;-84
2021/04/23 03:28:47;;;;;;;11.10;3.97;;;6.50;96.00;;;;;;5033108;28;20029;-83
2021/04/23 03:31:13;;;;;;;7.50;3.17;;;6.30;97.80;;;;;;5033259;28;20036;-83
2021/04/23 03:33:40;;;;;;;13.95;3.67;;;6.30;98.70;;;;;;5015537;28;20061;-83
2021/04/23 03:36:09;;;;;;;8.60;3.40;;;6.40;97.70;;;;;;5015500;28;20436;-83
2021/04/23 03:38:36;;;;;;;6.50;2.90;;;6.20;98.30;;;;;;5033084;28;20524;-83
2021/04/23 03:41:09;;;;;;;7.55;3.25;;;6.20;99.30;;;;;;5015517;28;20026;-83
2021/04/23 03:43:35;;;;;;;8.98;3.13;;;6.50;99.60;;;;;;5033002;28;20017;-83
2021/04/23 03:46:01;;;;;;;8.02;3.35;;;6.40;97.60;;;;;;5033436;28;20473;-84
2021/04/23 03:48:27;;;;;;;13.52;3.88;;;6.30;98.80;;;;;;5033137;28;20101;-84
2021/04/23 03:50:53;;;;;;;12.48;3.00;;;6.20;98.10;;;;;;5033116;28;20028;-84
2021/04/23 03:53:18;;;;;;;8.27;3.38;;;6.20;98.80;;;;;;5015319;28;20025;-83
2021/04/23 03:55:50;;;;;;;12.20;3.28;;;5.90;97.20;;;;;;5015425;28;20366;-83
2021/04/23 03:58:18;;;;;;;8.63;3.20;;;6.30;98.40;;;;;;5015351;28;20112;-83
2021/04/23 04:00:49;;;;;;;9.85;3.25;;;6.40;97.30;;;;;;5032995;28;20103;-84
2021/04/23 04:03:16;;;;;;;9.88;2.95;;;6.30;97.40;;;;;;5033064;28;20524;-83
2021/04/23 04:05:43;;;;;;;9.02;3.30;;;6.30;96.90;;;;;;4999133;28;20390;-83
2021/04/23 04:08:08;;;;;;;12.60;3.60;;;6.10;97.60;;;;;;5033200;28;20055;-83
2021/04/23 04:10:35;;;;;;;9.98;3.45;;;5.70;97.60;;;;;;5015206;28;20025;-83
2021/04/23 04:13:01;;;;;;;5.70;3.00;;;5.90;97.80;;;;;;5015201;28;20190;-83
2021/04/23 04:15:28;;;;;;;9.82;3.45;;;5.90;98.80;;;;;;5015149;28;20524;-83
2021/04/23 04:17:54;;;;;;;8.85;2.97;;;6.20;97.80;;;;;;5032856;28;20036;-82
2021/04/23 04:20:21;;;;;;;9.18;3.08;;;6.30;97.90;;;;;;5015050;28;20018;-83
2021/04/23 04:22:49;;;;;;;13.93;3.20;;;6.50;96.70;;;;;;5015072;28;20051;-83
2021/04/23 04:25:22;;;;;;;11.95;3.47;;;6.30;97.90;;;;;;5015112;28;20057;-83
2021/04/23 04:27:47;;;;;;;8.00;3.55;;;6.10;97.40;;;;;;5033088;28;20092;-83
2021/04/23 04:30:13;;;;;;;7.70;3.30;;;5.90;97.40;;;;;;5032999;28;20022;-83
2021/04/23 04:32:39;;;;;;;7.82;3.22;;;5.80;98.30;;;;;;5033006;28;20105;-83
2021/04/23 04:35:07;;;;;;;11.02;3.40;;;5.90;98.00;;;;;;5014983;28;20531;-83
2021/04/23 04:37:32;;;;;;;8.23;3.08;;;6.00;98.70;;;;;;5032670;28;20033;-83
2021/04/23 04:39:58;;;;;;;6.93;3.17;;;5.90;97.80;;;;;;5014760;28;20084;-83
2021/04/23 04:42:25;;;;;;;11.45;4.13;;;5.90;98.10;;;;;;5034941;28;20045;-82
2021/04/23 04:44:51;;;;;;;9.27;3.45;;;6.20;97.60;;;;;;5018273;28;20044;-82
2021/04/23 04:47:18;;;;;;;10.40;3.05;;;6.10;97.60;;;;;;5018443;28;20109;-82
2021/04/23 04:49:44;;;;;;;11.75;3.38;;;6.20;98.40;;;;;;5036090;28;20029;-82
2021/04/23 04:52:10;;;;;;;10.35;3.47;;;6.20;97.10;;;;;;5018272;28;20021;-82
2021/04/23 04:54:36;;;;;;;10.23;3.45;;;6.00;97.60;;;;;;5035977;28;20028;-82
2021/04/23 04:57:02;;;;;;;9.80;3.13;;;6.10;97.70;;;;;;5035951;28;20096;-82
2021/04/23 04:59:27;;;;;;;9.70;3.28;;;6.20;98.00;;;;;;5035866;28;20124;-82
2021/04/23 05:01:53;;;;;;;11.13;3.83;;;6.30;96.80;;;;;;5036133;28;20511;-82
2021/04/23 05:04:19;;;;;;;7.95;3.75;;;6.30;98.10;;;;;;5035803;28;20105;-82
2021/04/23 05:06:44;;;;;;;7.07;3.75;;;6.50;97.50;;;;;;5018064;28;20026;-81
2021/04/23 05:09:11;;;;;;;10.23;3.75;;;6.60;96.40;;;;;;5035719;28;20037;-81
2021/04/23 05:11:37;;;;;;;8.52;3.45;;;6.30;97.30;;;;;;5035711;28;20388;-82
2021/04/23 05:14:02;;;;;;;12.45;4.38;;;6.20;97.70;;;;;;5035660;28;20033;-81
2021/04/23 05:16:28;;;;;;;9.50;3.50;;;6.20;97.30;;;;;;5035596;28;20108;-81
2021/04/23 05:18:54;;;;;;;8.57;3.42;;;6.20;97.40;;;;;;5017737;28;20036;-81
2021/04/23 05:21:19;;;;;;;9.63;3.38;;;6.40;98.00;;;;;;5017811;28;20063;-82
2021/04/23 05:23:45;;;;;;;7.32;3.40;;;6.40;97.40;;;;;;5035478;28;20013;-82
2021/04/23 05:26:11;;;;;;;11.20;3.75;;;6.30;97.20;;;;;;5017652;28;20064;-82
2021/04/23 05:28:36;;;;;;;8.45;3.78;;;6.30;97.20;;;;;;5035354;28;20104;-82
2021/04/23 05:31:02;;;;;;;10.23;3.65;;;6.30;97.60;;;;;;5017712;28;20547;-81
2021/04/23 05:33:28;;;;;;;7.85;4.18;;;6.60;97.80;;;;;;5035215;28;20025;-81
2021/04/23 05:35:54;;;;;;;14.13;4.13;;;6.40;97.40;;;;;;5035217;28;20407;-81
2021/04/23 05:38:20;;;;;;;10.02;4.00;;;6.40;97.50;;;;;;5017415;28;20052;-81
2021/04/23 05:40:48;;;;;;;11.45;3.53;;;6.50;97.50;;;;;;5017380;28;20492;-81
2021/04/23 05:43:14;;;;;;;8.15;3.70;;;6.50;97.90;;;;;;5035367;28;20120;-81
2021/04/23 05:45:43;;;;;;;13.57;3.90;;;6.50;97.30;;;;;;5034802;28;20044;-82
2021/04/23 05:48:09;;;;;;;15.43;4.47;;;6.20;97.70;;;;;;5035197;28;20028;-82
2021/04/23 05:50:38;;;;;;;11.10;4.70;;;6.30;97.40;;;;;;5017109;28;20393;-82
2021/04/23 05:53:05;;;;;;;8.13;3.90;;;6.40;97.80;;;;;;5034786;28;20537;-82
2021/04/23 05:55:31;;;;;;;8.05;4.35;;;6.50;98.40;;;;;;5017082;28;20068;-81
2021/04/23 05:58:00;;;;;;;10.65;3.67;;;6.60;97.70;;;;;;5017044;28;20030;-82
2021/04/23 06:00:28;;;;;;;10.57;4.45;;;6.60;98.20;;;;;;5034923;28;20113;-81
2021/04/23 06:02:55;;;;;;;8.52;3.78;;;6.80;98.00;;;;;;5017000;28;20456;-82
2021/04/23 06:05:26;;;;;;;9.70;3.92;;;7.00;98.00;;;;;;5016926;28;20032;-82
2021/04/23 06:07:52;;;;;;;8.20;3.97;;;6.90;97.40;;;;;;5034643;28;20026;-82
2021/04/23 06:10:19;;;;;;;9.43;3.65;;;6.80;98.00;;;;;;5017058;28;20048;-82
2021/04/23 06:12:45;;;;;;;8.85;4.15;;;7.10;97.80;;;;;;5034758;28;20465;-83
2021/04/23 06:15:12;;;;;;;10.30;3.80;;;7.00;97.50;;;;;;5034720;28;20109;-83
2021/04/23 06:17:38;;;;;;;9.43;3.58;;;7.00;98.00;;;;;;5034402;28;20571;-83
2021/04/23 06:20:07;;;;;;;15.52;4.22;;;6.70;97.60;;;;;;5034234;28;20026;-83
2021/04/23 06:22:33;;;;;;;12.45;4.43;;;6.60;98.40;;;;;;5034608;28;20474;-83
2021/04/23 06:24:59;;;;;;;12.55;4.07;;;6.70;98.60;;;;;;5034256;28;20028;-83
2021/04/23 06:27:25;;;;;;;16.10;4.22;;;6.80;98.50;;;;;;5016494;28;20071;-83
2021/04/23 06:29:51;;;;;;;7.32;3.53;;;6.90;98.50;;;;;;5034124;28;20064;-83
2021/04/23 06:32:18;;;;;;;14.48;4.60;;;7.30;98.50;;;;;;5016351;28;20036;-83
2021/04/23 06:34:44;;;;;;;12.93;3.85;;;7.40;97.80;;;;;;5034369;28;20029;-83
2021/04/23 06:37:09;;;;;;;10.95;3.67;;;7.20;98.40;;;;;;5016367;28;20165;-83
2021/04/23 06:39:35;;;;;;;13.30;4.35;;;7.10;97.70;;;;;;5016078;28;20032;-83
2021/04/23 06:42:01;;;;;;;10.32;3.67;;;7.20;97.80;;;;;;5016339;28;20103;-83
2021/04/23 06:44:27;;;;;;;10.23;3.33;;;7.30;97.00;;;;;;5012742;28;20046;-83
2021/04/23 06:46:53;;;;;;;12.85;4.20;;;7.50;97.40;;;;;;5012876;28;20022;-83
2021/04/23 06:49:19;;;;;;;11.38;3.70;;;7.90;97.00;;;;;;5014090;28;20030;-83
2021/04/23 06:51:45;;;;;;;12.57;3.78;;;8.30;96.40;;;;;;5012799;28;20026;-83
2021/04/23 06:54:11;;;;;;;9.93;3.78;;;8.30;95.90;;;;;;5014064;28;20072;-83
2021/04/23 06:56:36;;;;;;;13.02;3.83;;;8.00;95.90;;;;;;5012666;28;20026;-83
2021/04/23 06:59:02;;;;;;;13.30;3.45;;;8.10;96.90;;;;;;5012515;28;20057;-83
2021/04/23 07:01:28;;;;;;;10.35;3.42;;;8.30;96.60;;;;;;5013881;28;20101;-83
2021/04/23 07:03:54;;;;;;;10.65;4.03;;;8.50;96.20;;;;;;5012112;28;20026;-83
2021/04/23 07:06:20;;;;;;;10.32;3.45;;;8.50;96.50;;;;;;5012555;28;20109;-84
2021/04/23 07:08:46;;;;;;;9.38;3.35;;;8.40;96.20;;;;;;5012558;28;20057;-84
2021/04/23 07:11:12;;;;;;;10.65;3.78;;;8.50;96.10;;;;;;5012514;28;20037;-84
2021/04/23 07:13:38;;;;;;;12.18;4.10;;;8.80;96.00;;;;;;5013977;28;20393;-84
2021/04/23 07:16:04;;;;;;;11.52;3.75;;;9.00;95.50;;;;;;5012580;28;20022;-84
2021/04/23 07:18:29;;;;;;;12.25;3.45;;;9.00;94.40;;;;;;5012482;28;20053;-84
2021/04/23 07:20:55;;;;;;;13.63;4.25;;;9.00;94.90;;;;;;5012377;28;20113;-84
2021/04/23 07:23:21;;;;;;;8.90;3.17;;;9.10;94.70;;;;;;5012364;28;20021;-84
2021/04/23 07:25:48;;;;;;;12.77;4.40;;;9.30;94.80;;;;;;5012258;28;20026;-84
2021/04/23 07:28:14;;;;;;;8.77;3.38;;;9.20;93.30;;;;;;5012298;28;20036;-85
2021/04/23 07:30:41;;;;;;;9.20;3.25;;;9.20;93.80;;;;;;5012553;28;20544;-85
2021/04/23 07:33:13;;;;;;;16.35;3.50;;;9.40;94.10;;;;;;5013592;28;20030;-84
2021/04/23 07:35:44;;;;;;;17.35;3.45;;;9.70;93.40;;;;;;5012793;28;20034;-84
2021/04/23 07:38:10;;;;;;;9.57;3.65;;;9.70;92.70;;;;;;5012167;28;20040;-84
2021/04/23 07:40:36;;;;;;;13.82;3.85;;;9.80;93.50;;;;;;5012099;28;20112;-84
2021/04/23 07:43:03;;;;;;;19.15;3.63;;;9.90;93.20;;;;;;5013431;28;20018;-84
2021/04/23 07:45:29;;;;;;;16.85;3.88;;;9.90;92.70;;;;;;5030083;28;20128;-84
2021/04/23 07:47:56;;;;;;;15.30;3.75;;;10.00;92.60;;;;;;5033114;28;20094;-84
2021/04/23 07:50:25;;;;;;;12.18;3.40;;;10.10;92.80;;;;;;5015336;28;20500;-84
2021/04/23 07:52:52;;;;;;;14.13;3.63;;;10.20;92.80;;;;;;5033033;28;20028;-84
2021/04/23 07:55:18;;;;;;;15.43;3.58;;;10.30;92.00;;;;;;5032994;28;20041;-85
2021/04/23 07:57:45;;;;;;;13.60;3.20;;;10.40;92.00;;;;;;5015254;28;20057;-85
2021/04/23 08:00:12;;;;;;;21.08;3.90;;;10.40;92.30;;;;;;5033146;28;20104;-84
2021/04/23 08:02:40;;;;;;;18.05;3.80;;;10.70;92.30;;;;;;5032985;28;20440;-84
2021/04/23 08:05:06;;;;;;;27.70;4.13;;;10.80;92.00;;;;;;5015092;28;20025;-84
2021/04/23 08:07:32;;;;;;;16.83;4.07;;;10.80;91.80;;;;;;5033487;28;20097;-85
2021/04/23 08:09:57;;;;;;;15.35;3.30;;;10.90;91.80;;;;;;5033155;28;20525;-84
2021/04/23 08:12:23;;;;;;;17.75;4.13;;;11.00;91.50;;;;;;5015165;28;20060;-84
2021/04/23 08:14:49;;;;;;;16.25;4.18;;;10.90;91.20;;;;;;5015115;28;20060;-85
2021/04/23 08:17:14;;;;;;;16.40;3.70;;;11.10;91.20;;;;;;5017365;28;20033;-84
2021/04/23 08:19:40;;;;;;;15.02;3.97;;;11.30;91.10;;;;;;5018813;28;20414;-84
2021/04/23 08:22:06;;;;;;;14.05;3.45;;;11.50;91.00;;;;;;5018889;28;20101;-84
2021/04/23 08:24:32;;;;;;;13.32;3.80;;;11.60;90.50;;;;;;5036490;28;20432;-85
2021/04/23 08:26:58;;;;;;;13.57;4.25;;;11.70;90.30;;;;;;5036761;28;20057;-85
2021/04/23 08:29:23;;;;;;;15.25;4.05;;;11.50;89.10;;;;;;5018717;28;20532;-86
2021/04/23 08:31:49;;;;;;;9.88;3.30;;;11.70;89.70;;;;;;5018945;28;20025;-85
2021/04/23 08:34:15;;;;;;;14.32;4.00;;;11.70;89.40;;;;;;5018617;28;20025;-87
2021/04/23 08:36:40;;;;;;;16.00;3.95;;;11.60;86.00;;;;;;5018510;28;20061;-85
2021/04/23 08:39:08;;;;;;;17.60;4.03;;;11.70;87.80;;;;;;5018328;28;20029;-85
2021/04/23 08:41:36;;;;;;;16.05;3.72;;;11.90;84.50;;;;;;5036244;28;20013;-85
2021/04/23 08:44:03;;;;;;;19.50;4.82;;;12.10;84.60;;;;;;5035992;28;20068;-85
2021/04/23 08:46:29;;;;;;;16.88;4.30;;;12.10;84.10;;;;;;5018342;28;20025;-85
2021/04/23 08:48:56;;;;;;;14.35;4.05;;;12.10;83.30;;;;;;5018398;28;20400;-85
2021/04/23 08:51:22;;;;;;;13.57;4.07;;;12.10;82.10;;;;;;5019349;28;20112;-85
2021/04/23 08:53:51;;;;;;;17.40;4.38;;;12.40;83.60;;;;;;5018477;28;20029;-85
2021/04/23 08:56:17;;;;;;;15.38;3.67;;;12.60;83.80;;;;;;5018487;28;20030;-86
2021/04/23 08:58:44;;;;;;;18.90;4.53;;;12.60;82.30;;;;;;5017988;28;20048;-85
2021/04/23 09:01:09;;;;;;;20.33;5.18;;;12.70;82.20;;;;;;5018161;28;20119;-84
2021/04/23 09:03:35;;;;;;;17.75;3.83;;;12.80;80.20;;;;;;5036360;28;20481;-85
2021/04/23 09:06:13;;;;;;;13.63;3.92;;;12.90;80.10;;;;;;5035737;28;20381;-85
2021/04/23 09:09:01;;;;;;;17.45;4.10;;;13.10;79.90;;;;;;5035668;28;20025;-85
2021/04/23 09:11:30;;;;;;;12.10;3.70;;;13.30;79.90;;;;;;5019679;28;20417;-85
2021/04/23 09:14:00;;;;;;;16.23;4.13;;;13.60;79.00;;;;;;5035617;28;20108;-85
2021/04/23 09:16:46;;;;;;;16.58;4.28;;;13.50;76.80;;;;;;5017841;28;20430;-85
2021/04/23 09:19:21;;;;;;;17.63;4.25;;;13.60;77.80;;;;;;5000967;28;20034;-85
2021/04/23 09:22:00;;;;;;;14.90;3.70;;;13.90;75.90;;;;;;5035481;28;20028;-85
2021/04/23 09:24:29;;;;;;;13.80;3.97;;;13.80;76.60;;;;;;5017768;28;20025;-85
2021/04/23 09:26:57;;;;;;;19.70;4.20;;;13.90;76.20;;;;;;5035198;28;20026;-86
2021/04/23 09:29:34;;;;;;;17.23;4.70;;;14.20;76.20;;;;;;5018119;28;20030;-85
2021/04/23 09:32:11;;;;;;;15.57;3.80;;;13.90;74.00;;;;;;5017550;28;20025;-86
2021/04/23 09:34:51;;;;;;;18.30;3.47;;;13.90;74.50;;;;;;5017443;28;20114;-86
2021/04/23 09:37:18;;;;;;;14.75;3.60;;;14.00;75.30;;;;;;5035537;28;20055;-86
2021/04/23 09:39:46;;;;;;;15.05;4.05;;;14.30;75.30;;;;;;5035013;28;20021;-85
2021/04/23 09:42:12;;;;;;;12.63;3.75;;;14.20;72.20;;;;;;5035764;28;20022;-85
2021/04/23 09:44:49;;;;;;;16.50;4.13;;;14.50;73.50;;;;;;5017450;28;20045;-85
2021/04/23 09:47:24;;;;;;;10.82;3.85;;;14.60;71.10;;;;;;5035214;28;20093;-86
2021/04/23 09:49:55;;;;;;;12.82;3.72;;;14.60;68.80;;;;;;5034949;28;20021;-85
2021/04/23 09:52:22;;;;;;;13.52;3.90;;;14.80;66.40;;;;;;5034899;28;20056;-85
2021/04/23 09:54:50;;;;;;;9.40;3.03;;;14.60;67.50;;;;;;5035100;28;20037;-85
2021/04/23 09:57:22;;;;;;;16.27;4.53;;;14.80;68.10;;;;;;5017048;28;20512;-84
2021/04/23 09:59:49;;;;;;;16.55;4.43;;;15.20;68.30;;;;;;5016892;28;20030;-83
2021/04/23 10:02:16;;;;;;;15.35;3.97;;;15.60;66.30;;;;;;5016880;28;20025;-83
2021/04/23 10:04:41;;;;;;;16.25;4.30;;;15.60;66.80;;;;;;5034565;28;20025;-84
2021/04/23 10:07:20;;;;;;;12.18;4.05;;;15.50;64.90;;;;;;5016842;28;20083;-84
2021/04/23 10:09:54;;;;;;;17.38;4.18;;;15.60;67.50;;;;;;5016840;28;20045;-86
2021/04/23 10:12:42;;;;;;;11.63;4.03;;;15.80;67.60;;;;;;5016835;28;20503;-85
2021/04/23 10:15:20;;;;;;;12.80;3.88;;;16.00;71.20;;;;;;5034887;28;20266;-84
2021/04/23 10:17:49;;;;;;;17.77;4.70;;;16.00;66.60;;;;;;5016623;28;20091;-85
2021/04/23 10:20:26;;;;;;;17.95;4.40;;;16.20;64.10;;;;;;5017157;28;20039;-85
2021/04/23 10:22:53;;;;;;;15.77;3.97;;;16.20;65.10;;;;;;5016647;28;20108;-86
2021/04/23 10:25:20;;;;;;;15.23;4.43;;;16.60;64.70;;;;;;5034296;28;20490;-86
2021/04/23 10:27:48;;;;;;;15.75;4.20;;;16.60;61.40;;;;;;5034282;28;20048;-86
2021/04/23 10:30:19;;;;;;;18.92;4.28;;;16.60;62.20;;;;;;5016471;28;20033;-85
2021/04/23 10:32:57;;;;;;;12.30;4.30;;;16.90;61.60;;;;;;5016575;28;20025;-85
2021/04/23 10:35:23;;;;;;;14.55;4.13;;;17.20;61.20;;;;;;5016455;28;20488;-85
2021/04/23 10:37:50;;;;;;;15.80;4.57;;;17.40;60.40;;;;;;5016254;28;20373;-85
2021/04/23 10:40:18;;;;;;;13.77;4.72;;;17.10;63.00;;;;;;5033268;28;20511;-85
2021/04/23 10:42:56;;;;;;;9.98;4.30;;;17.50;61.70;;;;;;5016173;28;20018;-85
2021/04/23 10:45:40;;;;;;;12.30;4.45;;;17.50;63.00;;;;;;5016107;28;20052;-85
2021/04/23 10:48:33;;;;;;;18.65;5.30;;;17.40;62.70;;;;;;5034186;28;20048;-85
2021/04/23 10:51:06;;;;;;;15.02;4.70;;;17.20;60.90;;;;;;5016016;28;20036;-85
2021/04/23 10:53:42;;;;;;;16.65;5.18;;;17.40;60.60;;;;;;5016053;28;20113;-85
2021/04/23 10:56:28;;;;;;;14.13;5.25;;;17.50;59.40;;;;;;5016128;28;20017;-85
2021/04/23 10:59:04;;;;;;;13.02;5.10;;;17.40;59.60;;;;;;5016008;28;20029;-86
2021/04/23 11:01:34;;;;;;;19.02;5.78;;;17.90;60.70;;;;;;5033657;28;20504;-85
2021/04/23 11:04:07;;;;;;;14.35;4.95;;;18.30;60.00;;;;;;5015942;28;20053;-86
2021/04/23 11:06:36;;;;;;;14.02;5.95;;;18.40;58.70;;;;;;5015901;28;20420;-85
2021/04/23 11:09:03;;;;;;;13.30;4.00;;;18.60;57.80;;;;;;5015774;28;20033;-85
2021/04/23 11:11:36;;;;;;;20.95;5.47;;;18.50;58.80;;;;;;5015766;28;20420;-84
2021/04/23 11:14:28;;;;;;;16.27;5.57;;;18.40;57.70;;;;;;5033479;28;20057;-87
2021/04/23 11:17:15;;;;;;;18.67;5.53;;;18.70;58.10;;;;;;5033392;28;20049;-85
2021/04/23 11:19:41;;;;;;;18.58;4.95;;;18.90;56.60;;;;;;5033181;28;20025;-85
2021/04/23 11:22:08;;;;;;;17.73;4.80;;;;;;;;;;5015716;28;20022;-86
2021/04/23 11:24:35;;;;;;;13.57;5.25;;;;;;;;;;5015697;28;20055;-86
2021/04/23 11:27:06;;;;;;;19.00;6.10;;;;;;;;;;5033358;28;20026;-88
2021/04/23 11:29:33;;;;;;;14.23;4.70;;;19.70;54.50;;;;;;5015597;28;20029;-86
2021/04/23 11:32:13;;;;;;;18.13;5.47;;;19.60;54.80;;;;;;5015879;28;20033;-87
2021/04/23 11:34:45;;;;;;;17.73;4.55;;;19.80;69.10;;;;;;5015641;28;20025;-85
2021/04/23 11:37:14;;;;;;;15.15;4.97;;;19.60;68.90;;;;;;5015396;28;20034;-87
2021/04/23 11:39:45;;;;;;;14.98;4.25;;;19.50;67.50;;;;;;5033091;28;20413;-87
2021/04/23 11:42:17;;;;;;;16.33;5.60;;;19.70;52.20;;;;;;5033481;28;20022;-86
2021/04/23 11:45:01;;;;;;;15.45;4.55;;;19.90;52.90;;;;;;5015338;28;20046;-86
2021/04/23 11:47:32;;;;;;;14.98;4.80;;;19.40;52.40;;;;;;5033174;28;20389;-86
2021/04/23 11:50:02;;;;;;;13.85;4.93;;;20.10;52.30;;;;;;5015614;28;20282;-86
2021/04/23 11:52:31;;;;;;;18.75;5.50;;;20.20;52.80;;;;;;5037168;28;20044;-87
2021/04/23 11:54:57;;;;;;;11.18;4.60;;;20.40;53.80;;;;;;5019252;28;20026;-87
2021/04/23 11:57:30;;;;;;;18.02;4.50;;;20.20;53.80;;;;;;5037452;28;20021;-86
2021/04/23 12:00:06;;;;;;;17.60;5.28;;;20.70;49.60;;;;;;5019191;28;20026;-86
2021/04/23 12:03:06;;;;;;;13.18;4.50;;;20.40;50.80;;;;;;5037088;28;20021;-86
2021/04/23 12:05:46;;;;;;;14.00;4.72;;;20.70;50.00;;;;;;4998739;28;20025;-87
2021/04/23 12:08:12;;;;;;;12.98;4.43;;;21.30;48.50;;;;;;5019291;28;20022;-86
2021/04/23 12:10:43;;;;;;;12.07;4.28;;;21.80;58.60;;;;;;5019158;28;20495;-87
2021/04/23 12:13:10;;;;;;;9.27;3.97;;;21.70;58.30;;;;;;5019208;28;20025;-86
2021/04/23 12:15:37;;;;;;;11.15;4.07;;;21.20;58.50;;;;;;5019084;28;20034;-88
2021/04/23 12:18:04;;;;;;;9.55;3.75;;;;;;;;;;5018968;28;20026;-86
2021/04/23 12:20:40;;;;;;;10.70;3.47;;;21.70;44.70;;;;;;5018894;28;20030;-86
2021/04/23 12:23:06;;;;;;;7.38;3.50;;;22.20;43.50;;;;;;5018983;28;20029;-88
2021/04/23 12:25:36;;;;;;;13.90;3.58;;;22.50;43.80;;;;;;5036613;28;20496;-87
2021/04/23 12:28:37;;;;;;;12.50;3.72;;;22.40;41.50;;;;;;5037149;28;20017;-88
2021/04/23 12:31:07;;;;;;;16.10;4.03;;;21.80;45.00;;;;;;4967925;28;20045;-87
2021/04/23 12:33:39;;;;;;;13.57;4.40;;;21.90;44.40;;;;;;5036443;28;20030;-87
2021/04/23 12:36:25;;;;;;;11.43;4.00;;;21.80;43.20;;;;;;5036580;28;20029;-87
2021/04/23 12:38:59;;;;;;;10.25;4.13;;;22.10;42.90;;;;;;5035920;28;20489;-90
2021/04/23 12:41:35;;;;;;;11.73;3.97;;;22.20;40.80;;;;;;5018651;28;20112;-87
2021/04/23 12:44:04;;;;;;;11.90;3.80;;;23.00;40.60;;;;;;5036243;28;20103;-87
2021/04/23 12:46:42;;;;;;;10.70;3.08;;;22.80;41.40;;;;;;5018628;28;20021;-87
2021/04/23 12:49:12;;;;;;;10.88;3.75;;;22.70;42.60;;;;;;5018428;28;20425;-87
2021/04/23 12:51:54;;;;;;;10.95;4.13;;;22.70;41.30;;;;;;5018570;28;20029;-87
2021/04/23 12:54:29;;;;;;;11.10;4.25;;;23.10;39.30;;;;;;5018421;28;20075;-87
2021/04/23 12:56:57;;;;;;;13.38;3.72;;;23.70;37.30;;;;;;5018334;28;20033;-87